首页
METAR-TAF:

METAR-TAF

机场 :

哥本哈根凯斯楚普机场

哥本哈根, 丹麦

纬度: 55-37N, 经度: 012-39E, 海拔: 5米

当前天气观测

该预报发布于8分钟前的12:20 UTC
风速14节,风向
温度 23°C
湿度 69%
气压 1016 hPa
能见度10公里或以上
1500米以下无云,无积雨云

METAR: EKCH 161220Z 18014KT CAVOK 23/17 Q1016 NOSIG

时间: 14:28 (12:28 UTC)

预报

该预报发布于1小时和31分钟前的10:57 UTC
预报有效从16日的 12点(UTC)到 17日的 12点(UTC)
风速12节,风向
能见度10公里或以上
少量云层高于3000英尺
短暂存在
从 16日的 12点(UTC)到 16日的 17点(UTC)
风速15节,风向,有时为25节阵风
成为
从 16日的 17点(UTC)到 16日的 19点(UTC)
风速12节,风向东南
成为
从 16日的 22点(UTC)到 16日的 24点(UTC)
风速2节,风向多变

TAF: EKCH 161057Z 1612/1712 18012KT 9999 FEW030 TEMPO 1612/1617 18015G25KT BECMG 1617/1619 14012KT BECMG 1622/1624 VRB02KT

超过4000个机场的气象观测和天气预报(METAR&TAF报告)。

可查询的气象台以黄色和红色小点在地图上表示。

将鼠标移到小点上方,可查看气象台名称。

然后点击查看天气观测和预报。

如需切换地图:点击带黑十字的绿色按钮放大地图;点击带横线的绿色按钮缩小地图;或者点击绿色箭头查看邻近地区的地图。


METAR-TAF: